Portada
METAR-TAF:

METAR-TAF

Aeroports :

Nova Orleans, Louisiana, Estats Units d'Amèrica

latitud: 29-59-34N, longitud: 090-15-03W, altitud: 1 m

Observació

L'informe es va fer fa 18 minuts, a les 12:53 UTC
Vent calma
Temperatura -1°C
Humitat 86%
Pressió 1029 hPa
Visibilitat: 16.1 km
Escasses núvols a una alçada de 1000 ft
Núvols disperses a una alçada de 25000 ft

METAR: KMSY 191253Z 00000KT 10SM FEW010 SCT250 M01/M03 A3038 RMK AO2 SLP290 FU FEW010 T10111033

Hora: 07:11 (13:11 UTC)

Pronòstic

L'informe es va fer fa 1 hora i 40 minuts, a les 11:31 UTC
Pronòstic vàlid del 19 a les 12 UTC al 20 a les 18 UTC
Vent 5 kt del Est
Visibilitat: 10 km
Cel ennuvolat a una alçada de 20000 ft
A partir de les 19 a les 2200 UTC
Vent 6 kt del Est
Visibilitat: 10 km
Cel ennuvolat a una alçada de 8000 ft

TAF: KMSY 191131Z 1912/2018 08005KT P6SM BKN200 FM192200 10006KT P6SM BKN080

Observacions i pronòstics meteorològics de més de 4000 aeroports (METAR i TAF).

Les estacions disponibles són els punts grocs i vermells al mapa.

Posi el ratolí al punt desitjat per veure el nom de l'estació.

Feu clic per veure les observacions i els pronòstics meteorològics.

Per canviar el mapa: feu clic els botons verds amb una creu de color negre per apropar; al botó verd amb un guió per allunyar la imatge; o en les fletxes verdes per a mapes adjacents.


METAR-TAF: